sensor_id;sensor_type;location;lat;lon;timestamp;pressure;altitude;pressure_sealevel;temperature;humidity
51986;BME280;38002;53.296;6.600;2024-03-02T00:01:10;100290.91;;;6.64;96.16
51986;BME280;38002;53.296;6.600;2024-03-02T00:06:10;100284.81;;;6.62;96.94
51986;BME280;38002;53.296;6.600;2024-03-02T00:11:12;100276.16;;;6.59;96.79
51986;BME280;38002;53.296;6.600;2024-03-02T00:16:14;100286.25;;;6.57;96.51
51986;BME280;38002;53.296;6.600;2024-03-02T00:21:16;100280.00;;;6.56;96.40
51986;BME280;38002;53.296;6.600;2024-03-02T00:26:20;100276.28;;;6.57;95.78
51986;BME280;38002;53.296;6.600;2024-03-02T00:31:21;100281.56;;;6.59;95.87
51986;BME280;38002;53.296;6.600;2024-03-02T00:36:25;100271.59;;;6.59;95.76
51986;BME280;38002;53.296;6.600;2024-03-02T00:41:31;100256.72;;;6.55;95.73
51986;BME280;38002;53.296;6.600;2024-03-02T00:46:39;100265.34;;;6.59;96.31
51986;BME280;38002;53.296;6.600;2024-03-02T00:51:40;100270.22;;;6.55;96.21
51986;BME280;38002;53.296;6.600;2024-03-02T00:56:42;100272.19;;;6.53;96.28
51986;BME280;38002;53.296;6.600;2024-03-02T01:01:42;100270.66;;;6.51;96.35
51986;BME280;38002;53.296;6.600;2024-03-02T01:06:43;100260.72;;;6.51;97.02
51986;BME280;38002;53.296;6.600;2024-03-02T01:11:44;100267.78;;;6.52;96.51
51986;BME280;38002;53.296;6.600;2024-03-02T01:16:44;100250.59;;;6.53;96.69
51986;BME280;38002;53.296;6.600;2024-03-02T01:21:44;100235.09;;;6.55;97.09
51986;BME280;38002;53.296;6.600;2024-03-02T01:26:45;100240.19;;;6.58;96.53
51986;BME280;38002;53.296;6.600;2024-03-02T01:31:45;100231.09;;;6.59;96.61
51986;BME280;38002;53.296;6.600;2024-03-02T01:36:46;100216.41;;;6.62;97.01
51986;BME280;38002;53.296;6.600;2024-03-02T01:41:47;100220.81;;;6.63;96.87
51986;BME280;38002;53.296;6.600;2024-03-02T01:46:47;100219.13;;;6.62;96.85
51986;BME280;38002;53.296;6.600;2024-03-02T01:51:48;100228.78;;;6.64;96.85
51986;BME280;38002;53.296;6.600;2024-03-02T01:56:48;100225.22;;;6.64;97.12
51986;BME280;38002;53.296;6.600;2024-03-02T02:01:49;100226.09;;;6.64;97.34
51986;BME280;38002;53.296;6.600;2024-03-02T02:06:49;100223.22;;;6.66;97.04
51986;BME280;38002;53.296;6.600;2024-03-02T02:11:50;100219.84;;;6.64;96.80
51986;BME280;38002;53.296;6.600;2024-03-02T02:16:51;100202.59;;;6.65;97.31
51986;BME280;38002;53.296;6.600;2024-03-02T02:21:52;100212.59;;;6.64;96.51
51986;BME280;38002;53.296;6.600;2024-03-02T02:26:52;100198.03;;;6.65;97.12
51986;BME280;38002;53.296;6.600;2024-03-02T02:31:53;100202.31;;;6.68;97.73
51986;BME280;38002;53.296;6.600;2024-03-02T02:36:54;100211.09;;;6.70;96.83
51986;BME280;38002;53.296;6.600;2024-03-02T02:41:55;100198.13;;;6.73;97.09
51986;BME280;38002;53.296;6.600;2024-03-02T02:46:55;100189.72;;;6.76;97.08
51986;BME280;38002;53.296;6.600;2024-03-02T02:51:56;100202.94;;;6.79;96.64
51986;BME280;38002;53.296;6.600;2024-03-02T02:56:56;100211.75;;;6.81;96.26
51986;BME280;38002;53.296;6.600;2024-03-02T03:01:57;100209.56;;;6.85;96.33
51986;BME280;38002;53.296;6.600;2024-03-02T03:06:57;100192.91;;;6.90;96.78
51986;BME280;38002;53.296;6.600;2024-03-02T03:11:58;100190.56;;;6.95;96.78
51986;BME280;38002;53.296;6.600;2024-03-02T03:16:58;100198.06;;;7.01;96.25
51986;BME280;38002;53.296;6.600;2024-03-02T03:21:58;100191.31;;;7.05;96.80
51986;BME280;38002;53.296;6.600;2024-03-02T03:26:59;100191.00;;;7.08;96.23
51986;BME280;38002;53.296;6.600;2024-03-02T03:31:59;100195.94;;;7.12;96.59
51986;BME280;38002;53.296;6.600;2024-03-02T03:37:00;100189.88;;;7.10;96.10
51986;BME280;38002;53.296;6.600;2024-03-02T03:42:00;100194.28;;;7.11;96.12
51986;BME280;38002;53.296;6.600;2024-03-02T03:47:01;100188.88;;;7.11;95.83
51986;BME280;38002;53.296;6.600;2024-03-02T03:52:04;100187.16;;;7.10;96.72
51986;BME280;38002;53.296;6.600;2024-03-02T03:57:04;100186.44;;;7.08;95.94
51986;BME280;38002;53.296;6.600;2024-03-02T04:02:05;100182.22;;;7.06;95.94
51986;BME280;38002;53.296;6.600;2024-03-02T04:07:05;100172.72;;;7.02;96.05
51986;BME280;38002;53.296;6.600;2024-03-02T04:12:06;100188.25;;;7.00;95.54
51986;BME280;38002;53.296;6.600;2024-03-02T04:17:06;100190.09;;;6.99;94.85
51986;BME280;38002;53.296;6.600;2024-03-02T04:22:07;100198.19;;;6.99;95.43
51986;BME280;38002;53.296;6.600;2024-03-02T04:27:07;100201.22;;;6.96;95.18
51986;BME280;38002;53.296;6.600;2024-03-02T04:32:07;100200.69;;;6.93;96.10
51986;BME280;38002;53.296;6.600;2024-03-02T04:37:09;100202.69;;;6.91;95.76
51986;BME280;38002;53.296;6.600;2024-03-02T04:42:10;100219.22;;;6.88;96.17
51986;BME280;38002;53.296;6.600;2024-03-02T04:47:10;100219.06;;;6.89;96.50
51986;BME280;38002;53.296;6.600;2024-03-02T04:52:11;100212.81;;;6.89;96.41
51986;BME280;38002;53.296;6.600;2024-03-02T04:57:11;100228.88;;;6.90;97.13
51986;BME280;38002;53.296;6.600;2024-03-02T05:02:12;100229.72;;;6.91;96.73
51986;BME280;38002;53.296;6.600;2024-03-02T05:07:14;100232.13;;;6.94;96.29
51986;BME280;38002;53.296;6.600;2024-03-02T05:12:15;100232.25;;;6.92;96.05
51986;BME280;38002;53.296;6.600;2024-03-02T05:17:34;100239.97;;;6.87;96.92
51986;BME280;38002;53.296;6.600;2024-03-02T05:22:34;100250.56;;;6.80;97.05
51986;BME280;38002;53.296;6.600;2024-03-02T05:27:35;100247.31;;;6.77;97.37
51986;BME280;38002;53.296;6.600;2024-03-02T05:32:35;100252.34;;;6.72;97.50
51986;BME280;38002;53.296;6.600;2024-03-02T05:37:36;100266.59;;;6.64;97.51
51986;BME280;38002;53.296;6.600;2024-03-02T05:42:36;100269.75;;;6.60;97.22
51986;BME280;38002;53.296;6.600;2024-03-02T05:47:37;100279.84;;;6.58;97.79
51986;BME280;38002;53.296;6.600;2024-03-02T05:52:38;100277.00;;;6.59;97.92
51986;BME280;38002;53.296;6.600;2024-03-02T05:57:39;100281.38;;;6.60;98.41
51986;BME280;38002;53.296;6.600;2024-03-02T06:02:43;100299.03;;;6.64;98.37
51986;BME280;38002;53.296;6.600;2024-03-02T06:07:43;100306.66;;;6.69;98.18
51986;BME280;38002;53.296;6.600;2024-03-02T06:12:44;100301.09;;;6.70;98.53
51986;BME280;38002;53.296;6.600;2024-03-02T06:17:44;100311.47;;;6.75;98.65
51986;BME280;38002;53.296;6.600;2024-03-02T06:22:45;100324.66;;;6.78;98.42
51986;BME280;38002;53.296;6.600;2024-03-02T06:27:45;100328.22;;;6.78;98.50
51986;BME280;38002;53.296;6.600;2024-03-02T06:32:45;100332.75;;;6.78;99.24
51986;BME280;38002;53.296;6.600;2024-03-02T06:37:46;100332.47;;;6.81;99.08
51986;BME280;38002;53.296;6.600;2024-03-02T06:42:46;100352.09;;;6.83;99.04
51986;BME280;38002;53.296;6.600;2024-03-02T06:47:47;100349.06;;;6.86;98.87
51986;BME280;38002;53.296;6.600;2024-03-02T06:52:47;100354.47;;;6.86;99.09
51986;BME280;38002;53.296;6.600;2024-03-02T06:57:48;100358.34;;;6.83;98.28
51986;BME280;38002;53.296;6.600;2024-03-02T07:02:48;100368.28;;;6.83;98.90
51986;BME280;38002;53.296;6.600;2024-03-02T07:07:49;100372.59;;;6.76;98.72
51986;BME280;38002;53.296;6.600;2024-03-02T07:12:49;100389.13;;;6.73;98.70
51986;BME280;38002;53.296;6.600;2024-03-02T07:17:50;100374.91;;;6.71;99.12
51986;BME280;38002;53.296;6.600;2024-03-02T07:22:50;100385.00;;;6.69;99.06
51986;BME280;38002;53.296;6.600;2024-03-02T07:27:51;100388.56;;;6.69;99.57
51986;BME280;38002;53.296;6.600;2024-03-02T07:32:51;100397.25;;;6.73;99.32
51986;BME280;38002;53.296;6.600;2024-03-02T07:37:52;100402.03;;;6.79;99.99
51986;BME280;38002;53.296;6.600;2024-03-02T07:42:52;100411.09;;;6.88;99.96
51986;BME280;38002;53.296;6.600;2024-03-02T07:47:53;100419.28;;;6.96;100.00
51986;BME280;38002;53.296;6.600;2024-03-02T07:52:53;100421.00;;;6.97;99.43
51986;BME280;38002;53.296;6.600;2024-03-02T07:57:54;100423.16;;;6.93;99.84
51986;BME280;38002;53.296;6.600;2024-03-02T08:02:55;100426.84;;;6.92;99.73
51986;BME280;38002;53.296;6.600;2024-03-02T08:07:56;100435.25;;;6.99;100.00
51986;BME280;38002;53.296;6.600;2024-03-02T08:12:57;100432.47;;;7.08;100.00
51986;BME280;38002;53.296;6.600;2024-03-02T08:17:57;100434.97;;;7.19;100.00
51986;BME280;38002;53.296;6.600;2024-03-02T08:22:58;100432.78;;;7.33;99.86
51986;BME280;38002;53.296;6.600;2024-03-02T08:27:59;100445.28;;;7.51;99.51
51986;BME280;38002;53.296;6.600;2024-03-02T08:33:02;100452.13;;;7.73;99.39
51986;BME280;38002;53.296;6.600;2024-03-02T08:38:03;100460.44;;;7.89;98.14
51986;BME280;38002;53.296;6.600;2024-03-02T08:43:04;100467.50;;;8.08;98.22
51986;BME280;38002;53.296;6.600;2024-03-02T08:48:07;100461.50;;;8.32;97.91
51986;BME280;38002;53.296;6.600;2024-03-02T08:53:08;100462.19;;;8.34;95.78
51986;BME280;38002;53.296;6.600;2024-03-02T08:58:09;100469.16;;;8.36;95.87
51986;BME280;38002;53.296;6.600;2024-03-02T09:03:09;100481.91;;;8.44;95.79
51986;BME280;38002;53.296;6.600;2024-03-02T09:08:10;100482.81;;;8.52;93.51
51986;BME280;38002;53.296;6.600;2024-03-02T09:13:10;100479.50;;;8.58;93.34
51986;BME280;38002;53.296;6.600;2024-03-02T09:18:11;100472.66;;;8.80;94.47
51986;BME280;38002;53.296;6.600;2024-03-02T09:23:12;100467.31;;;8.88;92.95
51986;BME280;38002;53.296;6.600;2024-03-02T09:28:12;100469.69;;;8.91;93.65
51986;BME280;38002;53.296;6.600;2024-03-02T09:33:13;100467.41;;;9.13;93.49
51986;BME280;38002;53.296;6.600;2024-03-02T09:38:13;100470.22;;;9.37;94.36
51986;BME280;38002;53.296;6.600;2024-03-02T09:43:14;100474.38;;;9.57;91.21
51986;BME280;38002;53.296;6.600;2024-03-02T09:48:14;100464.28;;;9.83;91.77
51986;BME280;38002;53.296;6.600;2024-03-02T09:53:18;100480.22;;;9.94;89.98
51986;BME280;38002;53.296;6.600;2024-03-02T09:58:19;100475.88;;;10.18;91.02
51986;BME280;38002;53.296;6.600;2024-03-02T10:03:20;100469.25;;;10.28;89.73
51986;BME280;38002;53.296;6.600;2024-03-02T10:08:21;100477.75;;;10.25;85.50
51986;BME280;38002;53.296;6.600;2024-03-02T10:13:24;100481.25;;;10.10;87.90
51986;BME280;38002;53.296;6.600;2024-03-02T10:18:26;100482.63;;;10.06;88.06
51986;BME280;38002;53.296;6.600;2024-03-02T10:23:28;100475.03;;;10.17;89.48
51986;BME280;38002;53.296;6.600;2024-03-02T10:28:29;100484.50;;;10.13;88.09
51986;BME280;38002;53.296;6.600;2024-03-02T10:33:30;100482.81;;;10.12;89.90
51986;BME280;38002;53.296;6.600;2024-03-02T10:38:30;100477.41;;;10.36;87.87
51986;BME280;38002;53.296;6.600;2024-03-02T10:43:31;100463.31;;;10.41;88.04
51986;BME280;38002;53.296;6.600;2024-03-02T10:48:34;100461.09;;;10.61;87.14
51986;BME280;38002;53.296;6.600;2024-03-02T10:53:35;100452.19;;;10.91;87.82
51986;BME280;38002;53.296;6.600;2024-03-02T10:58:36;100467.31;;;10.93;87.33
51986;BME280;38002;53.296;6.600;2024-03-02T11:03:37;100471.00;;;11.09;87.80
51986;BME280;38002;53.296;6.600;2024-03-02T11:08:40;100456.63;;;11.31;86.13
51986;BME280;38002;53.296;6.600;2024-03-02T11:13:49;100473.53;;;11.88;80.18
51986;BME280;38002;53.296;6.600;2024-03-02T11:18:50;100463.88;;;11.86;85.63
51986;BME280;38002;53.296;6.600;2024-03-02T11:23:50;100461.69;;;12.26;83.85
51986;BME280;38002;53.296;6.600;2024-03-02T11:28:51;100454.38;;;12.79;84.98
51986;BME280;38002;53.296;6.600;2024-03-02T11:33:52;100445.75;;;13.34;84.19
51986;BME280;38002;53.296;6.600;2024-03-02T11:38:55;100440.94;;;13.87;83.97
51986;BME280;38002;53.296;6.600;2024-03-02T11:44:03;100441.38;;;14.33;79.94
51986;BME280;38002;53.296;6.600;2024-03-02T11:49:04;100438.34;;;14.42;80.07
51986;BME280;38002;53.296;6.600;2024-03-02T11:54:05;100443.41;;;14.45;79.75
51986;BME280;38002;53.296;6.600;2024-03-02T11:59:06;100433.44;;;14.87;79.61
51986;BME280;38002;53.296;6.600;2024-03-02T12:04:07;100433.09;;;14.69;79.17
51986;BME280;38002;53.296;6.600;2024-03-02T12:09:09;100427.47;;;14.77;80.47
51986;BME280;38002;53.296;6.600;2024-03-02T12:14:12;100424.66;;;14.98;79.74
51986;BME280;38002;53.296;6.600;2024-03-02T12:19:13;100424.38;;;15.27;79.72
51986;BME280;38002;53.296;6.600;2024-03-02T12:24:16;100429.03;;;15.68;78.95
51986;BME280;38002;53.296;6.600;2024-03-02T12:29:19;100419.56;;;15.83;77.43
51986;BME280;38002;53.296;6.600;2024-03-02T12:34:21;100424.34;;;15.55;75.72
51986;BME280;38002;53.296;6.600;2024-03-02T12:39:22;100437.66;;;15.65;74.55
51986;BME280;38002;53.296;6.600;2024-03-02T12:44:23;100444.38;;;15.56;73.27
51986;BME280;38002;53.296;6.600;2024-03-02T12:49:23;100448.66;;;15.30;74.20
51986;BME280;38002;53.296;6.600;2024-03-02T12:54:25;100445.44;;;15.20;73.42
51986;BME280;38002;53.296;6.600;2024-03-02T12:59:28;100453.81;;;15.12;73.25
51986;BME280;38002;53.296;6.600;2024-03-02T13:04:28;100434.31;;;15.28;74.09
51986;BME280;38002;53.296;6.600;2024-03-02T13:09:29;100445.50;;;15.33;72.39
51986;BME280;38002;53.296;6.600;2024-03-02T13:14:32;100441.66;;;15.28;71.04
51986;BME280;38002;53.296;6.600;2024-03-02T13:19:33;100438.94;;;14.93;72.41
51986;BME280;38002;53.296;6.600;2024-03-02T13:24:33;100433.09;;;14.69;73.21
51986;BME280;38002;53.296;6.600;2024-03-02T13:29:34;100426.69;;;14.89;73.13
51986;BME280;38002;53.296;6.600;2024-03-02T13:34:34;100422.84;;;14.77;72.25
51986;BME280;38002;53.296;6.600;2024-03-02T13:39:35;100423.81;;;14.97;72.64
51986;BME280;38002;53.296;6.600;2024-03-02T13:44:43;100422.97;;;14.97;70.62
51986;BME280;38002;53.296;6.600;2024-03-02T13:49:47;100414.28;;;14.87;71.85
51986;BME280;38002;53.296;6.600;2024-03-02T13:54:49;100408.09;;;14.78;71.17
51986;BME280;38002;53.296;6.600;2024-03-02T13:59:49;100410.84;;;14.78;72.15
51986;BME280;38002;53.296;6.600;2024-03-02T14:04:50;100407.25;;;14.78;72.16
51986;BME280;38002;53.296;6.600;2024-03-02T14:09:51;100400.81;;;14.58;71.89
51986;BME280;38002;53.296;6.600;2024-03-02T14:14:51;100395.72;;;14.54;70.95
51986;BME280;38002;53.296;6.600;2024-03-02T14:19:55;100390.72;;;14.58;71.86
51986;BME280;38002;53.296;6.600;2024-03-02T14:24:57;100386.88;;;14.52;70.30
51986;BME280;38002;53.296;6.600;2024-03-02T14:29:57;100383.75;;;14.34;70.59
51986;BME280;38002;53.296;6.600;2024-03-02T14:34:58;100385.25;;;14.16;70.77
51986;BME280;38002;53.296;6.600;2024-03-02T14:39:59;100381.19;;;14.05;71.19
51986;BME280;38002;53.296;6.600;2024-03-02T14:44:59;100382.28;;;13.89;71.14
51986;BME280;38002;53.296;6.600;2024-03-02T14:50:00;100378.78;;;13.74;71.39
51986;BME280;38002;53.296;6.600;2024-03-02T14:55:01;100383.91;;;13.62;71.68
51986;BME280;38002;53.296;6.600;2024-03-02T15:00:03;100380.66;;;13.38;66.99
51986;BME280;38002;53.296;6.600;2024-03-02T15:05:09;100379.88;;;13.23;72.15
51986;BME280;38002;53.296;6.600;2024-03-02T15:10:10;100377.78;;;13.10;72.56
51986;BME280;38002;53.296;6.600;2024-03-02T15:15:28;100374.59;;;12.92;72.40
51986;BME280;38002;53.296;6.600;2024-03-02T15:20:28;100373.66;;;12.85;74.06
51986;BME280;38002;53.296;6.600;2024-03-02T15:25:29;100360.13;;;12.77;74.25
51986;BME280;38002;53.296;6.600;2024-03-02T15:30:30;100356.13;;;12.64;74.20
51986;BME280;38002;53.296;6.600;2024-03-02T15:35:30;100354.63;;;12.47;74.27
51986;BME280;38002;53.296;6.600;2024-03-02T15:40:31;100356.81;;;12.37;74.67
51986;BME280;38002;53.296;6.600;2024-03-02T15:45:31;100358.94;;;12.27;74.94
51986;BME280;38002;53.296;6.600;2024-03-02T15:50:34;100354.41;;;12.19;75.26
51986;BME280;38002;53.296;6.600;2024-03-02T15:55:36;100363.31;;;12.13;75.81
51986;BME280;38002;53.296;6.600;2024-03-02T16:00:36;100358.13;;;12.04;76.12
51986;BME280;38002;53.296;6.600;2024-03-02T16:05:37;100373.03;;;11.93;76.60
51986;BME280;38002;53.296;6.600;2024-03-02T16:10:37;100356.63;;;11.78;76.49
51986;BME280;38002;53.296;6.600;2024-03-02T16:15:38;100356.91;;;11.61;76.54
51986;BME280;38002;53.296;6.600;2024-03-02T16:20:38;100364.16;;;11.46;77.14
51986;BME280;38002;53.296;6.600;2024-03-02T16:25:39;100362.41;;;11.30;77.78
51986;BME280;38002;53.296;6.600;2024-03-02T16:30:41;100359.41;;;11.17;78.59
51986;BME280;38002;53.296;6.600;2024-03-02T16:35:42;100361.16;;;11.02;78.92
51986;BME280;38002;53.296;6.600;2024-03-02T16:40:45;100361.25;;;10.85;79.10
51986;BME280;38002;53.296;6.600;2024-03-02T16:45:48;100364.34;;;10.74;79.61
51986;BME280;38002;53.296;6.600;2024-03-02T16:50:48;100356.22;;;10.58;80.45
51986;BME280;38002;53.296;6.600;2024-03-02T16:55:49;100356.97;;;10.44;80.44
51986;BME280;38002;53.296;6.600;2024-03-02T17:00:50;100356.97;;;10.28;81.36
51986;BME280;38002;53.296;6.600;2024-03-02T17:05:52;100360.38;;;10.14;81.34
51986;BME280;38002;53.296;6.600;2024-03-02T17:10:52;100354.63;;;10.00;82.29
51986;BME280;38002;53.296;6.600;2024-03-02T17:15:53;100366.16;;;9.86;82.69
51986;BME280;38002;53.296;6.600;2024-03-02T17:20:53;100367.19;;;9.69;82.42
51986;BME280;38002;53.296;6.600;2024-03-02T17:25:54;100367.84;;;9.55;83.53
51986;BME280;38002;53.296;6.600;2024-03-02T17:30:55;100361.03;;;9.43;84.34
51986;BME280;38002;53.296;6.600;2024-03-02T17:35:55;100364.91;;;9.32;84.07
51986;BME280;38002;53.296;6.600;2024-03-02T17:40:57;100383.56;;;9.27;84.48
51986;BME280;38002;53.296;6.600;2024-03-02T17:45:58;100383.69;;;9.18;85.45
51986;BME280;38002;53.296;6.600;2024-03-02T17:50:59;100388.25;;;9.09;85.70
51986;BME280;38002;53.296;6.600;2024-03-02T17:56:00;100386.66;;;8.98;85.94
51986;BME280;38002;53.296;6.600;2024-03-02T18:01:00;100388.34;;;8.91;85.99
51986;BME280;38002;53.296;6.600;2024-03-02T18:06:03;100395.59;;;8.83;86.84
51986;BME280;38002;53.296;6.600;2024-03-02T18:11:04;100388.28;;;8.75;87.09
51986;BME280;38002;53.296;6.600;2024-03-02T18:16:04;100394.19;;;8.71;87.12
51986;BME280;38002;53.296;6.600;2024-03-02T18:21:05;100392.81;;;8.67;87.73
51986;BME280;38002;53.296;6.600;2024-03-02T18:26:05;100398.72;;;8.62;88.13
51986;BME280;38002;53.296;6.600;2024-03-02T18:31:06;100400.03;;;8.58;87.93
51986;BME280;38002;53.296;6.600;2024-03-02T18:36:06;100397.63;;;8.55;88.55
51986;BME280;38002;53.296;6.600;2024-03-02T18:41:07;100401.38;;;8.54;88.67
51986;BME280;38002;53.296;6.600;2024-03-02T18:46:09;100402.53;;;8.51;89.25
51986;BME280;38002;53.296;6.600;2024-03-02T18:51:10;100407.41;;;8.48;89.15
51986;BME280;38002;53.296;6.600;2024-03-02T18:56:10;100405.72;;;8.47;89.95
51986;BME280;38002;53.296;6.600;2024-03-02T19:01:11;100400.63;;;8.44;89.50
51986;BME280;38002;53.296;6.600;2024-03-02T19:06:15;100410.94;;;8.40;89.47
51986;BME280;38002;53.296;6.600;2024-03-02T19:11:16;100410.41;;;8.37;89.39
51986;BME280;38002;53.296;6.600;2024-03-02T19:16:17;100407.00;;;8.35;90.33
51986;BME280;38002;53.296;6.600;2024-03-02T19:21:18;100400.19;;;8.31;90.54
51986;BME280;38002;53.296;6.600;2024-03-02T19:26:18;100409.75;;;8.25;90.84
51986;BME280;38002;53.296;6.600;2024-03-02T19:31:18;100408.00;;;8.16;91.13
51986;BME280;38002;53.296;6.600;2024-03-02T19:36:19;100401.06;;;8.13;91.18
51986;BME280;38002;53.296;6.600;2024-03-02T19:41:19;100409.66;;;8.09;91.48
51986;BME280;38002;53.296;6.600;2024-03-02T19:46:20;100403.00;;;8.03;91.27
51986;BME280;38002;53.296;6.600;2024-03-02T19:51:22;100416.84;;;8.00;94.99
51986;BME280;38002;53.296;6.600;2024-03-02T19:56:22;100412.06;;;7.94;91.71
51986;BME280;38002;53.296;6.600;2024-03-02T20:01:23;100410.00;;;7.88;92.49
51986;BME280;38002;53.296;6.600;2024-03-02T20:06:23;100404.34;;;7.82;92.19
51986;BME280;38002;53.296;6.600;2024-03-02T20:11:24;100409.22;;;7.78;92.40
51986;BME280;38002;53.296;6.600;2024-03-02T20:16:24;100395.59;;;7.70;91.89
51986;BME280;38002;53.296;6.600;2024-03-02T20:21:25;100406.03;;;7.65;92.57
51986;BME280;38002;53.296;6.600;2024-03-02T20:26:25;100403.13;;;7.58;92.60
51986;BME280;38002;53.296;6.600;2024-03-02T20:31:26;100400.03;;;7.53;93.42
51986;BME280;38002;53.296;6.600;2024-03-02T20:36:26;100393.75;;;7.53;93.20
51986;BME280;38002;53.296;6.600;2024-03-02T20:41:27;100404.44;;;7.54;94.12
51986;BME280;38002;53.296;6.600;2024-03-02T20:46:27;100401.88;;;7.53;94.13
51986;BME280;38002;53.296;6.600;2024-03-02T20:51:28;100395.75;;;7.51;94.09
51986;BME280;38002;53.296;6.600;2024-03-02T20:56:32;100399.75;;;7.47;94.11
51986;BME280;38002;53.296;6.600;2024-03-02T21:01:36;100392.09;;;7.42;94.80
51986;BME280;38002;53.296;6.600;2024-03-02T21:06:37;100398.84;;;7.38;95.11
51986;BME280;38002;53.296;6.600;2024-03-02T21:11:37;100396.44;;;7.35;94.95
51986;BME280;38002;53.296;6.600;2024-03-02T21:16:38;100392.47;;;7.29;94.95
51986;BME280;38002;53.296;6.600;2024-03-02T21:21:43;100384.00;;;7.24;95.05
51986;BME280;38002;53.296;6.600;2024-03-02T21:26:44;100389.16;;;7.18;95.34
51986;BME280;38002;53.296;6.600;2024-03-02T21:31:44;100378.97;;;7.12;96.48
51986;BME280;38002;53.296;6.600;2024-03-02T21:36:45;100382.81;;;7.09;96.74
51986;BME280;38002;53.296;6.600;2024-03-02T21:41:45;100379.41;;;7.07;97.13
51986;BME280;38002;53.296;6.600;2024-03-02T21:46:46;100376.53;;;7.09;97.44
51986;BME280;38002;53.296;6.600;2024-03-02T21:51:47;100381.09;;;7.08;97.51
51986;BME280;38002;53.296;6.600;2024-03-02T21:56:47;100380.25;;;7.08;97.39
51986;BME280;38002;53.296;6.600;2024-03-02T22:01:48;100382.81;;;7.09;97.82
51986;BME280;38002;53.296;6.600;2024-03-02T22:06:48;100381.81;;;7.10;97.43
51986;BME280;38002;53.296;6.600;2024-03-02T22:11:49;100386.69;;;7.07;97.94
51986;BME280;38002;53.296;6.600;2024-03-02T22:16:49;100380.00;;;7.01;97.46
51986;BME280;38002;53.296;6.600;2024-03-02T22:21:50;100379.28;;;6.99;97.65
51986;BME280;38002;53.296;6.600;2024-03-02T22:26:50;100369.66;;;6.97;97.71
51986;BME280;38002;53.296;6.600;2024-03-02T22:31:51;100377.22;;;6.93;97.55
51986;BME280;38002;53.296;6.600;2024-03-02T22:36:51;100379.59;;;6.96;97.76
51986;BME280;38002;53.296;6.600;2024-03-02T22:41:52;100375.78;;;6.99;97.62
51986;BME280;38002;53.296;6.600;2024-03-02T22:46:53;100373.88;;;6.99;97.11
51986;BME280;38002;53.296;6.600;2024-03-02T22:51:55;100368.34;;;7.01;97.65
51986;BME280;38002;53.296;6.600;2024-03-02T22:56:55;100364.78;;;7.00;97.38
51986;BME280;38002;53.296;6.600;2024-03-02T23:01:57;100369.66;;;6.97;97.52
51986;BME280;38002;53.296;6.600;2024-03-02T23:06:57;100375.91;;;6.97;97.20
51986;BME280;38002;53.296;6.600;2024-03-02T23:11:58;100383.16;;;6.97;97.25
51986;BME280;38002;53.296;6.600;2024-03-02T23:16:58;100391.28;;;6.97;97.41
51986;BME280;38002;53.296;6.600;2024-03-02T23:21:59;100398.84;;;6.93;97.57
51986;BME280;38002;53.296;6.600;2024-03-02T23:26:59;100398.97;;;6.92;97.14
51986;BME280;38002;53.296;6.600;2024-03-02T23:32:00;100403.84;;;6.88;96.57
51986;BME280;38002;53.296;6.600;2024-03-02T23:37:01;100408.69;;;6.84;96.82
51986;BME280;38002;53.296;6.600;2024-03-02T23:42:01;100401.88;;;6.80;96.71
51986;BME280;38002;53.296;6.600;2024-03-02T23:47:03;100407.56;;;6.77;97.27
51986;BME280;38002;53.296;6.600;2024-03-02T23:52:03;100401.94;;;6.71;97.30
51986;BME280;38002;53.296;6.600;2024-03-02T23:57:04;100391.16;;;6.61;97.28
